sensor_id;sensor_type;location;lat;lon;timestamp;temperature;humidity
31207;DHT22;17834;52.992;8.856;2023-10-08T09:42:16;17.80;99.90
31207;DHT22;17834;52.992;8.856;2023-10-08T09:44:44;13.70;99.90
31207;DHT22;17834;52.992;8.856;2023-10-08T09:47:10;13.60;99.90
31207;DHT22;17834;52.992;8.856;2023-10-08T09:50:03;13.60;99.90
31207;DHT22;17834;52.992;8.856;2023-10-08T09:52:56;13.70;99.90
31207;DHT22;17834;52.992;8.856;2023-10-08T09:55:24;13.70;99.90
31207;DHT22;17834;52.992;8.856;2023-10-08T09:57:51;13.90;99.90
31207;DHT22;17834;52.992;8.856;2023-10-08T10:00:17;14.20;99.90
31207;DHT22;17834;52.992;8.856;2023-10-08T10:02:44;14.50;99.90
31207;DHT22;17834;52.992;8.856;2023-10-08T10:05:12;14.80;99.90
31207;DHT22;17834;52.992;8.856;2023-10-08T10:07:42;15.30;99.90
31207;DHT22;17834;52.992;8.856;2023-10-08T10:10:27;15.80;99.90
31207;DHT22;17834;52.992;8.856;2023-10-08T10:13:16;16.30;99.90
31207;DHT22;17834;52.992;8.856;2023-10-08T10:15:42;16.70;99.90
31207;DHT22;17834;52.992;8.856;2023-10-08T10:18:16;17.00;99.90
31207;DHT22;17834;52.992;8.856;2023-10-08T10:21:00;17.00;99.90
31207;DHT22;17834;52.992;8.856;2023-10-08T10:23:47;16.90;99.90
31207;DHT22;17834;52.992;8.856;2023-10-08T10:26:27;16.90;99.90
31207;DHT22;17834;52.992;8.856;2023-10-08T10:31:38;16.70;99.90
31207;DHT22;17834;52.992;8.856;2023-10-08T10:34:05;16.80;99.90
31207;DHT22;17834;52.992;8.856;2023-10-08T10:36:40;16.90;99.90
31207;DHT22;17834;52.992;8.856;2023-10-08T10:39:10;16.90;99.90
31207;DHT22;17834;52.992;8.856;2023-10-08T10:41:46;17.00;99.90
31207;DHT22;17834;52.992;8.856;2023-10-08T10:44:15;17.10;99.90
31207;DHT22;17834;52.992;8.856;2023-10-08T10:46:45;17.20;99.90
31207;DHT22;17834;52.992;8.856;2023-10-08T10:49:19;17.20;99.90
31207;DHT22;17834;52.992;8.856;2023-10-08T10:51:50;17.20;99.90
31207;DHT22;17834;52.992;8.856;2023-10-08T10:54:18;17.20;99.90
31207;DHT22;17834;52.992;8.856;2023-10-08T10:56:52;17.20;99.90
31207;DHT22;17834;52.992;8.856;2023-10-08T10:59:29;17.30;99.90
31207;DHT22;17834;52.992;8.856;2023-10-08T11:02:03;17.50;99.90
31207;DHT22;17834;52.992;8.856;2023-10-08T11:04:47;17.50;99.90
31207;DHT22;17834;52.992;8.856;2023-10-08T11:07:20;17.40;99.90
31207;DHT22;17834;52.992;8.856;2023-10-08T11:09:49;17.30;99.90
31207;DHT22;17834;52.992;8.856;2023-10-08T11:12:18;17.30;99.90
31207;DHT22;17834;52.992;8.856;2023-10-08T11:14:58;17.30;99.90
31207;DHT22;17834;52.992;8.856;2023-10-08T11:17:25;17.10;99.90
31207;DHT22;17834;52.992;8.856;2023-10-08T11:19:52;17.00;99.90
31207;DHT22;17834;52.992;8.856;2023-10-08T11:22:17;17.00;99.90
31207;DHT22;17834;52.992;8.856;2023-10-08T11:24:47;16.80;99.90
31207;DHT22;17834;52.992;8.856;2023-10-08T11:27:14;16.90;99.90
31207;DHT22;17834;52.992;8.856;2023-10-08T11:29:48;16.90;99.90
31207;DHT22;17834;52.992;8.856;2023-10-08T11:32:22;17.00;99.90
31207;DHT22;17834;52.992;8.856;2023-10-08T11:34:55;17.20;99.90
31207;DHT22;17834;52.992;8.856;2023-10-08T11:37:31;17.30;99.90
31207;DHT22;17834;52.992;8.856;2023-10-08T11:40:00;17.40;99.90
31207;DHT22;17834;52.992;8.856;2023-10-08T11:42:35;17.40;99.70
31207;DHT22;17834;52.992;8.856;2023-10-08T11:45:01;17.20;99.90
31207;DHT22;17834;52.992;8.856;2023-10-08T11:47:47;17.10;99.90
31207;DHT22;17834;52.992;8.856;2023-10-08T11:50:27;16.80;99.70
31207;DHT22;17834;52.992;8.856;2023-10-08T11:53:00;16.70;99.90
31207;DHT22;17834;52.992;8.856;2023-10-08T11:55:35;16.80;99.90
31207;DHT22;17834;52.992;8.856;2023-10-08T11:58:02;16.90;99.90
31207;DHT22;17834;52.992;8.856;2023-10-08T12:00:38;17.10;99.90
31207;DHT22;17834;52.992;8.856;2023-10-08T12:03:11;17.30;99.90
31207;DHT22;17834;52.992;8.856;2023-10-08T12:05:38;17.50;99.90
31207;DHT22;17834;52.992;8.856;2023-10-08T12:08:16;17.60;99.90
31207;DHT22;17834;52.992;8.856;2023-10-08T12:10:45;17.80;99.90
31207;DHT22;17834;52.992;8.856;2023-10-08T12:13:12;17.80;99.90
31207;DHT22;17834;52.992;8.856;2023-10-08T12:15:38;17.90;99.90
31207;DHT22;17834;52.992;8.856;2023-10-08T12:18:04;17.80;99.50
31207;DHT22;17834;52.992;8.856;2023-10-08T12:20:49;17.90;98.70
31207;DHT22;17834;52.992;8.856;2023-10-08T12:23:14;17.90;99.10
31207;DHT22;17834;52.992;8.856;2023-10-08T12:25:53;17.90;99.50
31207;DHT22;17834;52.992;8.856;2023-10-08T12:28:21;18.00;99.70
31207;DHT22;17834;52.992;8.856;2023-10-08T12:30:49;18.10;98.70
31207;DHT22;17834;52.992;8.856;2023-10-08T12:33:18;18.10;97.50
31207;DHT22;17834;52.992;8.856;2023-10-08T12:35:45;18.20;98.00
31207;DHT22;17834;52.992;8.856;2023-10-08T12:38:11;18.30;98.90
31207;DHT22;17834;52.992;8.856;2023-10-08T12:40:38;18.20;97.90
31207;DHT22;17834;52.992;8.856;2023-10-08T12:43:16;18.20;97.10
31207;DHT22;17834;52.992;8.856;2023-10-08T12:45:49;18.20;97.30
31207;DHT22;17834;52.992;8.856;2023-10-08T12:50:47;18.10;97.00
31207;DHT22;17834;52.992;8.856;2023-10-08T12:53:19;17.80;97.20
31207;DHT22;17834;52.992;8.856;2023-10-08T12:55:49;17.70;98.40
31207;DHT22;17834;52.992;8.856;2023-10-08T12:58:21;17.70;97.70
31207;DHT22;17834;52.992;8.856;2023-10-08T13:00:57;17.80;97.60
31207;DHT22;17834;52.992;8.856;2023-10-08T13:05:57;18.00;96.40
31207;DHT22;17834;52.992;8.856;2023-10-08T13:08:32;18.20;95.70
31207;DHT22;17834;52.992;8.856;2023-10-08T13:11:01;18.40;96.00
31207;DHT22;17834;52.992;8.856;2023-10-08T13:13:35;18.50;95.90
31207;DHT22;17834;52.992;8.856;2023-10-08T13:16:02;18.70;96.20
31207;DHT22;17834;52.992;8.856;2023-10-08T13:18:35;18.70;95.30
31207;DHT22;17834;52.992;8.856;2023-10-08T13:21:03;18.80;95.50
31207;DHT22;17834;52.992;8.856;2023-10-08T13:23:29;19.10;95.70
31207;DHT22;17834;52.992;8.856;2023-10-08T13:25:55;19.20;94.50
31207;DHT22;17834;52.992;8.856;2023-10-08T13:28:21;19.30;92.70
31207;DHT22;17834;52.992;8.856;2023-10-08T13:30:48;19.50;93.90
31207;DHT22;17834;52.992;8.856;2023-10-08T13:33:23;19.50;92.70
31207;DHT22;17834;52.992;8.856;2023-10-08T13:35:49;19.50;92.20
31207;DHT22;17834;52.992;8.856;2023-10-08T13:38:19;19.60;91.40
31207;DHT22;17834;52.992;8.856;2023-10-08T13:40:48;19.60;91.20
31207;DHT22;17834;52.992;8.856;2023-10-08T13:43:32;19.60;92.70
31207;DHT22;17834;52.992;8.856;2023-10-08T13:46:06;19.20;91.50
31207;DHT22;17834;52.992;8.856;2023-10-08T13:48:34;19.10;91.80
31207;DHT22;17834;52.992;8.856;2023-10-08T13:51:04;18.70;91.70
31207;DHT22;17834;52.992;8.856;2023-10-08T13:53:33;18.40;92.40
31207;DHT22;17834;52.992;8.856;2023-10-08T13:56:01;18.30;92.10
31207;DHT22;17834;52.992;8.856;2023-10-08T13:58:28;18.20;92.90
31207;DHT22;17834;52.992;8.856;2023-10-08T14:00:56;18.20;93.10
31207;DHT22;17834;52.992;8.856;2023-10-08T14:03:21;18.10;92.80
31207;DHT22;17834;52.992;8.856;2023-10-08T14:08:20;17.90;93.10
31207;DHT22;17834;52.992;8.856;2023-10-08T14:10:47;17.90;93.80
31207;DHT22;17834;52.992;8.856;2023-10-08T14:13:15;17.90;93.80
31207;DHT22;17834;52.992;8.856;2023-10-08T14:15:45;18.00;94.30
31207;DHT22;17834;52.992;8.856;2023-10-08T14:18:14;18.00;94.40
31207;DHT22;17834;52.992;8.856;2023-10-08T14:20:45;18.20;95.80
31207;DHT22;17834;52.992;8.856;2023-10-08T14:23:13;18.30;95.10
31207;DHT22;17834;52.992;8.856;2023-10-08T14:25:42;18.20;93.20
31207;DHT22;17834;52.992;8.856;2023-10-08T14:28:11;18.10;93.40
31207;DHT22;17834;52.992;8.856;2023-10-08T14:30:48;17.90;94.30
31207;DHT22;17834;52.992;8.856;2023-10-08T14:33:19;17.90;94.20
31207;DHT22;17834;52.992;8.856;2023-10-08T14:35:50;17.90;93.90
31207;DHT22;17834;52.992;8.856;2023-10-08T14:38:35;17.80;93.40
31207;DHT22;17834;52.992;8.856;2023-10-08T14:41:19;17.70;94.60
31207;DHT22;17834;52.992;8.856;2023-10-08T14:44:03;17.70;94.90
31207;DHT22;17834;52.992;8.856;2023-10-08T14:46:30;17.70;96.60
31207;DHT22;17834;52.992;8.856;2023-10-08T14:48:58;17.60;94.30
31207;DHT22;17834;52.992;8.856;2023-10-08T14:51:24;17.70;94.50
31207;DHT22;17834;52.992;8.856;2023-10-08T14:53:50;17.70;94.90
31207;DHT22;17834;52.992;8.856;2023-10-08T14:56:16;17.70;93.40
31207;DHT22;17834;52.992;8.856;2023-10-08T14:58:43;17.60;93.60
31207;DHT22;17834;52.992;8.856;2023-10-08T15:01:09;17.60;94.70
31207;DHT22;17834;52.992;8.856;2023-10-08T15:03:39;17.50;95.50
31207;DHT22;17834;52.992;8.856;2023-10-08T15:06:04;17.40;94.60
31207;DHT22;17834;52.992;8.856;2023-10-08T15:08:33;17.20;94.40
31207;DHT22;17834;52.992;8.856;2023-10-08T15:10:59;17.00;94.30
31207;DHT22;17834;52.992;8.856;2023-10-08T15:13:28;17.00;96.00
31207;DHT22;17834;52.992;8.856;2023-10-08T15:16:18;16.90;97.30
31207;DHT22;17834;52.992;8.856;2023-10-08T15:19:23;16.80;97.20
31207;DHT22;17834;52.992;8.856;2023-10-08T15:21:49;16.80;96.90
31207;DHT22;17834;52.992;8.856;2023-10-08T15:24:22;16.70;97.00
31207;DHT22;17834;52.992;8.856;2023-10-08T15:26:49;16.60;96.30
31207;DHT22;17834;52.992;8.856;2023-10-08T15:29:15;16.70;96.60
31207;DHT22;17834;52.992;8.856;2023-10-08T15:31:41;16.50;96.30
31207;DHT22;17834;52.992;8.856;2023-10-08T15:34:08;16.40;96.60
31207;DHT22;17834;52.992;8.856;2023-10-08T15:36:34;16.30;97.90
31207;DHT22;17834;52.992;8.856;2023-10-08T15:38:59;16.20;97.30
31207;DHT22;17834;52.992;8.856;2023-10-08T15:41:25;16.20;97.60
31207;DHT22;17834;52.992;8.856;2023-10-08T15:43:51;16.10;98.50
31207;DHT22;17834;52.992;8.856;2023-10-08T15:46:19;16.00;99.30
31207;DHT22;17834;52.992;8.856;2023-10-08T15:48:45;15.90;99.90
31207;DHT22;17834;52.992;8.856;2023-10-08T15:51:11;15.90;99.90
31207;DHT22;17834;52.992;8.856;2023-10-08T15:53:37;15.80;99.90
31207;DHT22;17834;52.992;8.856;2023-10-08T15:56:04;15.80;99.90
31207;DHT22;17834;52.992;8.856;2023-10-08T15:58:30;15.70;99.90
31207;DHT22;17834;52.992;8.856;2023-10-08T16:00:55;15.60;99.90
31207;DHT22;17834;52.992;8.856;2023-10-08T16:03:21;15.50;99.90
31207;DHT22;17834;52.992;8.856;2023-10-08T16:05:46;15.40;99.90
31207;DHT22;17834;52.992;8.856;2023-10-08T16:08:14;15.30;99.90
31207;DHT22;17834;52.992;8.856;2023-10-08T16:10:40;15.20;99.90
31207;DHT22;17834;52.992;8.856;2023-10-08T16:13:06;15.20;99.90
31207;DHT22;17834;52.992;8.856;2023-10-08T16:15:32;15.10;99.90
31207;DHT22;17834;52.992;8.856;2023-10-08T16:17:57;14.90;99.90
31207;DHT22;17834;52.992;8.856;2023-10-08T16:20:23;14.90;99.90
31207;DHT22;17834;52.992;8.856;2023-10-08T16:22:51;14.80;99.90
31207;DHT22;17834;52.992;8.856;2023-10-08T16:25:18;14.70;99.90
31207;DHT22;17834;52.992;8.856;2023-10-08T16:27:46;14.60;99.90
31207;DHT22;17834;52.992;8.856;2023-10-08T16:30:22;14.50;99.90
31207;DHT22;17834;52.992;8.856;2023-10-08T16:32:52;14.40;99.90
31207;DHT22;17834;52.992;8.856;2023-10-08T16:35:18;14.40;99.90
31207;DHT22;17834;52.992;8.856;2023-10-08T16:37:49;14.30;99.90
31207;DHT22;17834;52.992;8.856;2023-10-08T16:40:15;14.20;99.90
31207;DHT22;17834;52.992;8.856;2023-10-08T16:42:41;14.20;99.90
31207;DHT22;17834;52.992;8.856;2023-10-08T16:45:07;14.10;99.90
31207;DHT22;17834;52.992;8.856;2023-10-08T16:47:50;14.00;99.90
31207;DHT22;17834;52.992;8.856;2023-10-08T17:10:32;13.70;99.90
31207;DHT22;17834;52.992;8.856;2023-10-08T17:12:58;13.70;99.90
31207;DHT22;17834;52.992;8.856;2023-10-08T17:15:24;13.60;99.90
31207;DHT22;17834;52.992;8.856;2023-10-08T17:17:50;13.60;99.90
31207;DHT22;17834;52.992;8.856;2023-10-08T17:20:16;13.60;99.90
31207;DHT22;17834;52.992;8.856;2023-10-08T17:22:45;13.60;99.90
31207;DHT22;17834;52.992;8.856;2023-10-08T17:25:11;13.50;99.90
31207;DHT22;17834;52.992;8.856;2023-10-08T17:27:37;13.50;99.90
31207;DHT22;17834;52.992;8.856;2023-10-08T17:30:09;13.60;99.90
31207;DHT22;17834;52.992;8.856;2023-10-08T17:32:34;13.60;99.90
31207;DHT22;17834;52.992;8.856;2023-10-08T17:35:01;13.50;99.90
31207;DHT22;17834;52.992;8.856;2023-10-08T17:37:27;13.50;99.90
31207;DHT22;17834;52.992;8.856;2023-10-08T17:39:52;13.50;99.90
31207;DHT22;17834;52.992;8.856;2023-10-08T17:42:18;13.50;99.90
31207;DHT22;17834;52.992;8.856;2023-10-08T17:44:44;13.50;99.90
31207;DHT22;17834;52.992;8.856;2023-10-08T17:47:11;13.50;99.90
31207;DHT22;17834;52.992;8.856;2023-10-08T17:52:04;13.40;99.90
31207;DHT22;17834;52.992;8.856;2023-10-08T17:54:35;13.40;99.90
31207;DHT22;17834;52.992;8.856;2023-10-08T17:57:02;13.40;99.90
31207;DHT22;17834;52.992;8.856;2023-10-08T17:59:29;13.40;99.90
31207;DHT22;17834;52.992;8.856;2023-10-08T18:01:55;13.50;99.90
31207;DHT22;17834;52.992;8.856;2023-10-08T18:04:20;13.50;99.90
31207;DHT22;17834;52.992;8.856;2023-10-08T18:06:48;13.40;99.90
31207;DHT22;17834;52.992;8.856;2023-10-08T18:09:14;13.40;99.90
31207;DHT22;17834;52.992;8.856;2023-10-08T18:11:46;13.50;99.90
31207;DHT22;17834;52.992;8.856;2023-10-08T18:14:13;13.50;99.90
31207;DHT22;17834;52.992;8.856;2023-10-08T18:16:44;13.50;99.90
31207;DHT22;17834;52.992;8.856;2023-10-08T18:19:10;13.50;99.90
31207;DHT22;17834;52.992;8.856;2023-10-08T18:21:37;13.60;99.90
31207;DHT22;17834;52.992;8.856;2023-10-08T18:24:08;13.50;99.90
31207;DHT22;17834;52.992;8.856;2023-10-08T18:26:34;13.50;99.90
31207;DHT22;17834;52.992;8.856;2023-10-08T18:29:07;13.50;99.90
31207;DHT22;17834;52.992;8.856;2023-10-08T18:31:34;13.50;99.90
31207;DHT22;17834;52.992;8.856;2023-10-08T18:34:01;13.50;99.90
31207;DHT22;17834;52.992;8.856;2023-10-08T18:36:28;13.40;99.90
31207;DHT22;17834;52.992;8.856;2023-10-08T18:38:54;13.50;99.90
31207;DHT22;17834;52.992;8.856;2023-10-08T18:41:20;13.50;99.90
31207;DHT22;17834;52.992;8.856;2023-10-08T18:43:47;13.50;99.90
31207;DHT22;17834;52.992;8.856;2023-10-08T18:46:13;13.50;99.90
31207;DHT22;17834;52.992;8.856;2023-10-08T18:48:39;13.50;99.90
31207;DHT22;17834;52.992;8.856;2023-10-08T18:51:13;13.50;99.90
31207;DHT22;17834;52.992;8.856;2023-10-08T18:53:41;13.50;99.90
31207;DHT22;17834;52.992;8.856;2023-10-08T18:56:10;13.60;99.90
31207;DHT22;17834;52.992;8.856;2023-10-08T18:58:40;13.50;99.90
31207;DHT22;17834;52.992;8.856;2023-10-08T19:01:06;13.40;99.90
31207;DHT22;17834;52.992;8.856;2023-10-08T19:03:33;13.50;99.90
31207;DHT22;17834;52.992;8.856;2023-10-08T19:06:00;13.50;99.90
31207;DHT22;17834;52.992;8.856;2023-10-08T19:08:25;13.50;99.90
31207;DHT22;17834;52.992;8.856;2023-10-08T19:10:51;13.50;99.90
31207;DHT22;17834;52.992;8.856;2023-10-08T19:13:19;13.40;99.90
31207;DHT22;17834;52.992;8.856;2023-10-08T19:15:44;13.50;99.90
31207;DHT22;17834;52.992;8.856;2023-10-08T19:18:11;13.40;99.90
31207;DHT22;17834;52.992;8.856;2023-10-08T19:20:37;13.40;99.90
31207;DHT22;17834;52.992;8.856;2023-10-08T19:23:04;13.40;99.90
31207;DHT22;17834;52.992;8.856;2023-10-08T19:25:31;13.40;99.90
31207;DHT22;17834;52.992;8.856;2023-10-08T19:27:59;13.40;99.90
31207;DHT22;17834;52.992;8.856;2023-10-08T19:30:25;13.40;99.90
31207;DHT22;17834;52.992;8.856;2023-10-08T19:32:51;13.40;99.90
31207;DHT22;17834;52.992;8.856;2023-10-08T19:35:17;13.40;99.90
31207;DHT22;17834;52.992;8.856;2023-10-08T19:37:45;13.30;99.90
31207;DHT22;17834;52.992;8.856;2023-10-08T19:40:11;13.30;99.90
31207;DHT22;17834;52.992;8.856;2023-10-08T19:42:41;13.30;99.90
31207;DHT22;17834;52.992;8.856;2023-10-08T19:45:08;13.30;99.90
31207;DHT22;17834;52.992;8.856;2023-10-08T19:47:41;13.30;99.90
31207;DHT22;17834;52.992;8.856;2023-10-08T19:50:07;13.30;99.90
31207;DHT22;17834;52.992;8.856;2023-10-08T19:52:36;13.30;99.90
31207;DHT22;17834;52.992;8.856;2023-10-08T19:55:04;13.20;99.90
31207;DHT22;17834;52.992;8.856;2023-10-08T19:57:30;13.30;99.90
31207;DHT22;17834;52.992;8.856;2023-10-08T19:59:56;13.30;99.90
31207;DHT22;17834;52.992;8.856;2023-10-08T20:02:22;13.20;99.90
31207;DHT22;17834;52.992;8.856;2023-10-08T20:04:48;13.20;99.90
31207;DHT22;17834;52.992;8.856;2023-10-08T20:07:14;13.20;99.90
31207;DHT22;17834;52.992;8.856;2023-10-08T20:09:40;13.20;99.90
31207;DHT22;17834;52.992;8.856;2023-10-08T20:12:05;13.20;99.90
31207;DHT22;17834;52.992;8.856;2023-10-08T20:14:33;13.20;99.90
31207;DHT22;17834;52.992;8.856;2023-10-08T20:16:58;13.30;99.90
31207;DHT22;17834;52.992;8.856;2023-10-08T20:19:24;13.20;99.90
31207;DHT22;17834;52.992;8.856;2023-10-08T20:21:55;13.30;99.90
31207;DHT22;17834;52.992;8.856;2023-10-08T20:24:21;13.20;99.90
31207;DHT22;17834;52.992;8.856;2023-10-08T20:26:47;13.20;99.90
31207;DHT22;17834;52.992;8.856;2023-10-08T20:29:13;13.10;99.90
31207;DHT22;17834;52.992;8.856;2023-10-08T20:31:39;13.10;99.90
31207;DHT22;17834;52.992;8.856;2023-10-08T20:34:04;13.10;99.90
31207;DHT22;17834;52.992;8.856;2023-10-08T20:36:32;13.10;99.90
31207;DHT22;17834;52.992;8.856;2023-10-08T20:38:59;13.10;99.90
31207;DHT22;17834;52.992;8.856;2023-10-08T20:41:24;13.10;99.90
31207;DHT22;17834;52.992;8.856;2023-10-08T20:43:50;13.20;99.90
31207;DHT22;17834;52.992;8.856;2023-10-08T20:46:18;13.10;99.90
31207;DHT22;17834;52.992;8.856;2023-10-08T20:48:44;13.20;99.90
31207;DHT22;17834;52.992;8.856;2023-10-08T20:51:11;13.10;99.90
31207;DHT22;17834;52.992;8.856;2023-10-08T20:53:43;13.10;99.90
31207;DHT22;17834;52.992;8.856;2023-10-08T20:56:09;13.10;99.90
31207;DHT22;17834;52.992;8.856;2023-10-08T20:58:34;13.10;99.90
31207;DHT22;17834;52.992;8.856;2023-10-08T21:01:00;13.10;99.90
31207;DHT22;17834;52.992;8.856;2023-10-08T21:03:26;13.10;99.90
31207;DHT22;17834;52.992;8.856;2023-10-08T21:05:52;13.10;99.90
31207;DHT22;17834;52.992;8.856;2023-10-08T21:08:18;13.10;99.90
31207;DHT22;17834;52.992;8.856;2023-10-08T21:10:45;13.10;99.90
31207;DHT22;17834;52.992;8.856;2023-10-08T21:13:13;13.00;99.90
31207;DHT22;17834;52.992;8.856;2023-10-08T21:15:39;13.00;99.90
31207;DHT22;17834;52.992;8.856;2023-10-08T21:18:06;13.00;99.90
31207;DHT22;17834;52.992;8.856;2023-10-08T21:20:33;13.00;99.90
31207;DHT22;17834;52.992;8.856;2023-10-08T21:23:00;13.00;99.90
31207;DHT22;17834;52.992;8.856;2023-10-08T21:25:27;13.00;99.90
31207;DHT22;17834;52.992;8.856;2023-10-08T21:27:54;13.00;99.90
31207;DHT22;17834;52.992;8.856;2023-10-08T21:30:20;13.00;99.90
31207;DHT22;17834;52.992;8.856;2023-10-08T21:32:48;13.00;99.90
31207;DHT22;17834;52.992;8.856;2023-10-08T21:35:16;13.00;99.90
31207;DHT22;17834;52.992;8.856;2023-10-08T21:37:43;12.90;99.90
31207;DHT22;17834;52.992;8.856;2023-10-08T21:40:09;13.00;99.90
31207;DHT22;17834;52.992;8.856;2023-10-08T21:45:01;12.90;99.90
31207;DHT22;17834;52.992;8.856;2023-10-08T21:47:27;12.90;99.90
31207;DHT22;17834;52.992;8.856;2023-10-08T21:49:53;13.00;99.90
31207;DHT22;17834;52.992;8.856;2023-10-08T21:52:19;12.90;99.90
31207;DHT22;17834;52.992;8.856;2023-10-08T21:54:44;12.90;99.90
31207;DHT22;17834;52.992;8.856;2023-10-08T21:57:10;12.90;99.90
31207;DHT22;17834;52.992;8.856;2023-10-08T21:59:35;12.90;99.90
31207;DHT22;17834;52.992;8.856;2023-10-08T22:02:01;12.90;99.90
31207;DHT22;17834;52.992;8.856;2023-10-08T22:04:28;12.90;99.90
31207;DHT22;17834;52.992;8.856;2023-10-08T22:06:55;12.80;99.90
31207;DHT22;17834;52.992;8.856;2023-10-08T22:09:22;12.80;99.90
31207;DHT22;17834;52.992;8.856;2023-10-08T22:11:56;12.80;99.90
31207;DHT22;17834;52.992;8.856;2023-10-08T22:14:23;12.80;99.90
31207;DHT22;17834;52.992;8.856;2023-10-08T22:16:52;12.80;99.90
31207;DHT22;17834;52.992;8.856;2023-10-08T22:19:20;12.70;99.90
31207;DHT22;17834;52.992;8.856;2023-10-08T22:21:47;12.80;99.90
31207;DHT22;17834;52.992;8.856;2023-10-08T22:24:16;12.70;99.90
31207;DHT22;17834;52.992;8.856;2023-10-08T22:26:44;12.80;99.90
31207;DHT22;17834;52.992;8.856;2023-10-08T22:29:11;12.70;99.90
31207;DHT22;17834;52.992;8.856;2023-10-08T22:31:39;12.80;99.90
31207;DHT22;17834;52.992;8.856;2023-10-08T22:34:10;12.70;99.90
31207;DHT22;17834;52.992;8.856;2023-10-08T22:36:43;12.70;99.90
31207;DHT22;17834;52.992;8.856;2023-10-08T22:39:27;12.80;99.90
31207;DHT22;17834;52.992;8.856;2023-10-08T22:41:55;12.70;99.90
31207;DHT22;17834;52.992;8.856;2023-10-08T22:44:22;12.70;99.90
31207;DHT22;17834;52.992;8.856;2023-10-08T22:46:48;12.70;99.90
31207;DHT22;17834;52.992;8.856;2023-10-08T22:49:23;12.70;99.90
31207;DHT22;17834;52.992;8.856;2023-10-08T22:51:48;12.70;99.90
31207;DHT22;17834;52.992;8.856;2023-10-08T22:54:15;12.70;99.90
31207;DHT22;17834;52.992;8.856;2023-10-08T22:56:42;12.70;99.90
31207;DHT22;17834;52.992;8.856;2023-10-08T22:59:08;12.70;99.90
31207;DHT22;17834;52.992;8.856;2023-10-08T23:01:37;12.70;99.90
31207;DHT22;17834;52.992;8.856;2023-10-08T23:04:09;12.70;99.90
31207;DHT22;17834;52.992;8.856;2023-10-08T23:06:41;12.60;99.90
31207;DHT22;17834;52.992;8.856;2023-10-08T23:09:08;12.60;99.90
31207;DHT22;17834;52.992;8.856;2023-10-08T23:11:35;12.60;99.90
31207;DHT22;17834;52.992;8.856;2023-10-08T23:14:01;12.60;99.90
31207;DHT22;17834;52.992;8.856;2023-10-08T23:16:29;12.60;99.90
31207;DHT22;17834;52.992;8.856;2023-10-08T23:18:55;12.60;99.90
31207;DHT22;17834;52.992;8.856;2023-10-08T23:21:20;12.60;99.90
31207;DHT22;17834;52.992;8.856;2023-10-08T23:23:47;12.60;99.90
31207;DHT22;17834;52.992;8.856;2023-10-08T23:26:13;12.60;99.90
31207;DHT22;17834;52.992;8.856;2023-10-08T23:28:42;12.60;99.90
31207;DHT22;17834;52.992;8.856;2023-10-08T23:31:08;12.60;99.90
31207;DHT22;17834;52.992;8.856;2023-10-08T23:33:37;12.60;99.90
31207;DHT22;17834;52.992;8.856;2023-10-08T23:36:09;12.60;99.90
31207;DHT22;17834;52.992;8.856;2023-10-08T23:38:38;12.60;99.90
31207;DHT22;17834;52.992;8.856;2023-10-08T23:41:05;12.60;99.90
31207;DHT22;17834;52.992;8.856;2023-10-08T23:43:42;12.60;99.90
31207;DHT22;17834;52.992;8.856;2023-10-08T23:46:25;12.70;99.90
31207;DHT22;17834;52.992;8.856;2023-10-08T23:48:59;12.70;99.90
31207;DHT22;17834;52.992;8.856;2023-10-08T23:51:35;12.70;99.90
31207;DHT22;17834;52.992;8.856;2023-10-08T23:54:07;12.70;99.90
31207;DHT22;17834;52.992;8.856;2023-10-08T23:56:39;12.70;99.90
31207;DHT22;17834;52.992;8.856;2023-10-08T23:59:10;12.70;99.90
